createdAt,value
2018-08-17T00:00:37.514Z,999.81
2018-08-17T00:01:18.015Z,999.8
2018-08-17T00:01:58.523Z,999.81
2018-08-17T00:02:39.085Z,999.82
2018-08-17T00:03:19.543Z,999.81
2018-08-17T00:04:00.127Z,999.84
2018-08-17T00:04:40.641Z,999.81
2018-08-17T00:05:21.242Z,999.75
2018-08-17T00:06:01.680Z,999.83
2018-08-17T00:06:42.133Z,999.78
2018-08-17T00:07:22.648Z,999.78
2018-08-17T00:08:03.185Z,999.79
2018-08-17T00:08:43.824Z,999.81
2018-08-17T00:09:24.220Z,999.79
2018-08-17T00:10:04.721Z,999.82
2018-08-17T00:10:45.235Z,999.8
2018-08-17T00:11:25.744Z,999.82
2018-08-17T00:12:06.253Z,999.8
2018-08-17T00:12:46.764Z,999.81
2018-08-17T00:13:27.288Z,999.78
2018-08-17T00:14:07.832Z,999.79
2018-08-17T00:14:48.357Z,999.78
2018-08-17T00:15:28.866Z,999.82
2018-08-17T00:16:09.504Z,999.75
2018-08-17T00:16:50.068Z,999.79
2018-08-17T00:17:30.568Z,999.77
2018-08-17T00:18:11.082Z,999.75
2018-08-17T00:18:51.598Z,999.71
2018-08-17T00:19:32.106Z,999.7
2018-08-17T00:20:12.670Z,999.69
2018-08-17T00:20:53.207Z,999.67
2018-08-17T00:21:33.724Z,999.7
2018-08-17T00:22:14.241Z,999.63
2018-08-17T00:22:54.764Z,999.65
2018-08-17T00:23:35.274Z,999.62
2018-08-17T00:24:15.795Z,999.61
2018-08-17T00:26:34.209Z,999.69
2018-08-17T00:27:14.742Z,999.62
2018-08-17T00:27:55.264Z,999.63
2018-08-17T00:28:35.780Z,999.55
2018-08-17T00:29:16.315Z,999.61
2018-08-17T00:29:56.819Z,999.6
2018-08-17T00:30:37.338Z,999.56
2018-08-17T00:31:17.879Z,999.6
2018-08-17T00:31:58.385Z,999.61
2018-08-17T00:32:38.894Z,999.62
2018-08-17T00:33:19.621Z,999.56
2018-08-17T00:34:00.132Z,999.58
2018-08-17T00:34:40.747Z,999.57
2018-08-17T00:35:21.248Z,999.55
2018-08-17T00:36:01.728Z,999.57
2018-08-17T00:36:42.244Z,999.56
2018-08-17T00:37:22.771Z,999.56
2018-08-17T00:38:03.282Z,999.59
2018-08-17T00:38:43.810Z,999.56
2018-08-17T00:39:24.290Z,999.54
2018-08-17T00:40:04.755Z,999.57
2018-08-17T00:40:45.257Z,999.62
2018-08-17T00:41:25.768Z,999.6
2018-08-17T00:42:06.327Z,999.56
2018-08-17T00:42:46.778Z,999.57
2018-08-17T00:43:27.290Z,999.6
2018-08-17T00:44:07.797Z,999.57
2018-08-17T00:44:48.315Z,999.51
2018-08-17T00:45:28.826Z,999.54
2018-08-17T00:46:09.350Z,999.51
2018-08-17T00:46:49.834Z,999.53
2018-08-17T00:47:30.299Z,999.47
2018-08-17T00:48:10.914Z,999.54
2018-08-17T00:48:51.310Z,999.47
2018-08-17T00:49:31.834Z,999.47
2018-08-17T00:50:12.364Z,999.51
2018-08-17T00:50:52.867Z,999.5
2018-08-17T00:51:33.365Z,999.5
2018-08-17T00:52:13.864Z,999.54
2018-08-17T00:52:54.411Z,999.5
2018-08-17T00:53:34.944Z,999.56
2018-08-17T00:54:15.458Z,999.59
2018-08-17T00:54:55.993Z,999.56
2018-08-17T00:55:36.540Z,999.6
2018-08-17T00:56:17.004Z,999.57
2018-08-17T00:56:57.527Z,999.58
2018-08-17T00:57:38.031Z,999.51
2018-08-17T00:58:18.548Z,999.59
2018-08-17T00:58:59.097Z,999.54
2018-08-17T00:59:39.603Z,999.57
2018-08-17T01:00:20.119Z,999.58
2018-08-17T01:01:00.643Z,999.59
2018-08-17T01:01:41.161Z,999.59
2018-08-17T01:02:21.669Z,999.59
2018-08-17T01:03:02.191Z,999.57
2018-08-17T01:03:42.689Z,999.59
2018-08-17T01:04:23.195Z,999.6
2018-08-17T01:05:03.724Z,999.59
2018-08-17T01:05:44.302Z,999.59
2018-08-17T01:06:24.788Z,999.57
2018-08-17T01:07:05.324Z,999.6
2018-08-17T01:07:45.849Z,999.54
2018-08-17T01:08:26.369Z,999.53
2018-08-17T01:09:06.891Z,999.54
2018-08-17T01:09:47.420Z,999.51
2018-08-17T01:10:27.936Z,999.49
2018-08-17T01:11:08.461Z,999.5
2018-08-17T01:11:48.948Z,999.53
2018-08-17T01:12:29.462Z,999.49
2018-08-17T01:13:09.980Z,999.53
2018-08-17T01:13:50.488Z,999.51
2018-08-17T01:14:31.006Z,999.52
2018-08-17T01:15:11.535Z,999.52
2018-08-17T01:15:52.046Z,999.52
2018-08-17T01:16:32.568Z,999.52
2018-08-17T01:17:13.050Z,999.53
2018-08-17T01:17:53.557Z,999.49
2018-08-17T01:18:34.082Z,999.52
2018-08-17T01:19:14.610Z,999.53
2018-08-17T01:19:55.134Z,999.54
2018-08-17T01:20:35.644Z,999.52
2018-08-17T01:21:16.183Z,999.57
2018-08-17T01:21:56.689Z,999.57
2018-08-17T01:22:37.223Z,999.59
2018-08-17T01:23:17.738Z,999.57
2018-08-17T01:23:58.258Z,999.61
2018-08-17T01:24:38.807Z,999.64
2018-08-17T01:25:19.309Z,999.64
2018-08-17T01:25:59.832Z,999.67
2018-08-17T01:26:40.351Z,999.66
2018-08-17T01:27:20.866Z,999.65
2018-08-17T01:28:01.383Z,999.73
2018-08-17T01:28:41.900Z,999.7
2018-08-17T01:29:22.426Z,999.69
2018-08-17T01:30:02.969Z,999.66
2018-08-17T01:30:43.483Z,999.68
2018-08-17T01:31:24.001Z,999.67
2018-08-17T01:32:04.511Z,999.68
2018-08-17T01:32:45.063Z,999.67
2018-08-17T01:33:25.517Z,999.65
2018-08-17T01:34:06.029Z,999.68
2018-08-17T01:34:46.566Z,999.67
2018-08-17T01:35:27.085Z,999.72
2018-08-17T01:36:07.601Z,999.71
2018-08-17T01:36:48.111Z,999.69
2018-08-17T01:37:28.629Z,999.7
2018-08-17T01:38:09.161Z,999.71
2018-08-17T01:38:49.687Z,999.66
2018-08-17T01:39:30.195Z,999.7
2018-08-17T01:40:10.716Z,999.7
2018-08-17T01:40:51.232Z,999.69
2018-08-17T01:41:31.757Z,999.72
2018-08-17T01:42:12.269Z,999.7
2018-08-17T01:42:52.804Z,999.71
2018-08-17T01:43:33.273Z,999.7
2018-08-17T01:44:13.775Z,999.72
2018-08-17T01:44:54.236Z,999.76
2018-08-17T01:45:34.741Z,999.78
2018-08-17T01:46:15.235Z,999.73
2018-08-17T01:46:55.711Z,999.76
2018-08-17T01:47:36.218Z,999.78
2018-08-17T01:48:16.728Z,999.77
2018-08-17T01:48:57.255Z,999.79
2018-08-17T01:49:37.759Z,999.8
2018-08-17T01:50:18.286Z,999.78
2018-08-17T01:50:58.804Z,999.79
2018-08-17T01:51:39.332Z,999.78
2018-08-17T01:52:19.856Z,999.78
2018-08-17T01:53:00.451Z,999.77
2018-08-17T01:53:40.968Z,999.73
2018-08-17T01:54:21.492Z,999.76
2018-08-17T01:55:02.012Z,999.73
2018-08-17T01:55:42.536Z,999.7
2018-08-17T01:56:23.065Z,999.72
2018-08-17T01:57:03.566Z,999.72
2018-08-17T01:57:44.075Z,999.72
2018-08-17T01:58:24.592Z,999.71
2018-08-17T01:59:05.107Z,999.67
2018-08-17T01:59:45.630Z,999.65
2018-08-17T02:00:26.148Z,999.71
2018-08-17T02:01:06.666Z,999.65
2018-08-17T02:01:47.183Z,999.66
2018-08-17T02:02:27.711Z,999.65
2018-08-17T02:03:08.225Z,999.66
2018-08-17T02:03:48.735Z,999.67
2018-08-17T02:04:29.266Z,999.64
2018-08-17T02:05:09.778Z,999.65
2018-08-17T02:05:50.309Z,999.69
2018-08-17T02:06:30.812Z,999.71
2018-08-17T02:07:11.331Z,999.66
2018-08-17T02:07:51.860Z,999.69
2018-08-17T02:08:32.387Z,999.7
2018-08-17T02:09:12.917Z,999.74
2018-08-17T02:09:53.424Z,999.72
2018-08-17T02:10:33.942Z,999.76
2018-08-17T02:11:14.466Z,999.73
2018-08-17T02:11:55.000Z,999.71
2018-08-17T02:12:35.524Z,999.72
2018-08-17T02:13:16.040Z,999.73
2018-08-17T02:13:56.568Z,999.73
2018-08-17T02:14:37.121Z,999.71
2018-08-17T02:15:17.614Z,999.7
2018-08-17T02:15:58.111Z,999.75
2018-08-17T02:16:38.620Z,999.75
2018-08-17T02:17:19.148Z,999.73
2018-08-17T02:17:59.666Z,999.73
2018-08-17T02:18:40.181Z,999.72
2018-08-17T02:20:54.462Z,999.74
2018-08-17T02:21:34.964Z,999.74
2018-08-17T02:22:15.486Z,999.74
2018-08-17T02:22:55.991Z,999.74
2018-08-17T02:23:36.501Z,999.74
2018-08-17T02:24:17.030Z,999.71
2018-08-17T02:24:57.534Z,999.72
2018-08-17T02:25:38.044Z,999.72
2018-08-17T02:26:18.559Z,999.7
2018-08-17T02:26:59.065Z,999.72
2018-08-17T02:27:39.579Z,999.72
2018-08-17T02:28:20.109Z,999.72
2018-08-17T02:29:00.645Z,999.69
2018-08-17T02:29:41.155Z,999.69
2018-08-17T02:30:21.662Z,999.7
2018-08-17T02:31:02.174Z,999.72
2018-08-17T02:31:42.700Z,999.71
2018-08-17T02:32:23.229Z,999.7
2018-08-17T02:33:03.755Z,999.74
2018-08-17T02:33:44.266Z,999.76
2018-08-17T02:34:24.772Z,999.73
2018-08-17T02:35:05.287Z,999.68
2018-08-17T02:35:45.790Z,999.7
2018-08-17T02:36:26.306Z,999.7
2018-08-17T02:37:06.828Z,999.71
2018-08-17T02:37:47.347Z,999.72
2018-08-17T02:38:27.865Z,999.7
2018-08-17T02:39:08.384Z,999.65
2018-08-17T02:39:48.904Z,999.71
2018-08-17T02:40:29.424Z,999.71
2018-08-17T02:41:09.947Z,999.67
2018-08-17T02:41:50.457Z,999.7
2018-08-17T02:42:30.980Z,999.66
2018-08-17T02:43:11.500Z,999.67
2018-08-17T02:43:52.014Z,999.69
2018-08-17T02:44:32.527Z,999.65
2018-08-17T02:45:13.060Z,999.67
2018-08-17T02:45:53.562Z,999.61
2018-08-17T02:46:34.087Z,999.64
2018-08-17T02:47:14.607Z,999.64
2018-08-17T02:47:55.131Z,999.64
2018-08-17T02:48:35.678Z,999.64
2018-08-17T02:49:16.287Z,999.61
2018-08-17T02:49:56.804Z,999.63
2018-08-17T02:50:37.329Z,999.61
2018-08-17T02:51:17.842Z,999.62
2018-08-17T02:51:58.369Z,999.6
2018-08-17T02:52:38.895Z,999.61
2018-08-17T02:53:19.415Z,999.59
2018-08-17T02:53:59.935Z,999.58
2018-08-17T02:54:40.463Z,999.61
2018-08-17T02:55:20.993Z,999.61
2018-08-17T02:56:01.485Z,999.6
2018-08-17T02:56:41.999Z,999.62
2018-08-17T02:57:22.527Z,999.63
2018-08-17T02:58:03.039Z,999.58
2018-08-17T02:58:43.556Z,999.56
2018-08-17T02:59:24.099Z,999.58
2018-08-17T03:00:04.590Z,999.59
2018-08-17T03:00:45.120Z,999.62
2018-08-17T03:01:25.637Z,999.62
2018-08-17T03:02:06.143Z,999.65
2018-08-17T03:02:46.660Z,999.61
2018-08-17T03:03:27.183Z,999.64
2018-08-17T03:04:07.708Z,999.65
2018-08-17T03:04:48.221Z,999.63
2018-08-17T03:05:28.746Z,999.65
2018-08-17T03:06:09.237Z,999.68
2018-08-17T03:06:49.767Z,999.67
2018-08-17T03:07:30.289Z,999.69
2018-08-17T03:08:10.811Z,999.68
2018-08-17T03:08:51.325Z,999.64
2018-08-17T03:09:31.844Z,999.68
2018-08-17T03:10:12.374Z,999.68
2018-08-17T03:10:52.909Z,999.64
2018-08-17T03:11:33.437Z,999.64
2018-08-17T03:12:13.950Z,999.66
2018-08-17T03:12:54.486Z,999.65
2018-08-17T03:13:35.002Z,999.68
2018-08-17T03:14:15.529Z,999.62
2018-08-17T03:14:56.131Z,999.68
2018-08-17T03:15:36.647Z,999.68
2018-08-17T03:16:17.179Z,999.65
2018-08-17T03:16:57.698Z,999.65
2018-08-17T03:17:38.201Z,999.68
2018-08-17T03:18:18.727Z,999.67
2018-08-17T03:18:59.235Z,999.7
2018-08-17T03:19:39.763Z,999.74
2018-08-17T03:20:20.298Z,999.68
2018-08-17T03:21:00.823Z,999.66
2018-08-17T03:21:41.329Z,999.67
2018-08-17T03:22:21.861Z,999.7
2018-08-17T03:23:02.377Z,999.72
2018-08-17T03:23:42.896Z,999.67
2018-08-17T03:24:23.411Z,999.69
2018-08-17T03:25:03.935Z,999.69
2018-08-17T03:25:44.469Z,999.7
2018-08-17T03:26:24.979Z,999.72
2018-08-17T03:27:05.493Z,999.67
2018-08-17T03:27:46.013Z,999.69
2018-08-17T03:28:26.553Z,999.71
2018-08-17T03:29:07.043Z,999.75
2018-08-17T03:29:47.561Z,999.75
2018-08-17T03:30:28.055Z,999.72
2018-08-17T03:31:08.558Z,999.73
2018-08-17T03:31:49.067Z,999.71
2018-08-17T03:32:29.581Z,999.72
2018-08-17T03:33:10.093Z,999.73
2018-08-17T03:33:50.611Z,999.76
2018-08-17T03:34:31.127Z,999.76
2018-08-17T03:35:11.644Z,999.75
2018-08-17T03:35:52.139Z,999.79
2018-08-17T03:36:32.657Z,999.77
2018-08-17T03:37:13.235Z,999.79
2018-08-17T03:37:53.704Z,999.77
2018-08-17T03:38:34.230Z,999.79
2018-08-17T03:39:14.748Z,999.78
2018-08-17T03:39:55.264Z,999.78
2018-08-17T03:40:35.779Z,999.74
2018-08-17T03:41:16.293Z,999.79
2018-08-17T03:41:56.814Z,999.78
2018-08-17T03:42:37.304Z,999.82
2018-08-17T03:43:17.825Z,999.82
2018-08-17T03:43:58.360Z,999.82
2018-08-17T03:44:38.886Z,999.83
2018-08-17T03:45:19.418Z,999.84
2018-08-17T03:45:59.929Z,999.85
2018-08-17T03:46:40.434Z,999.86
2018-08-17T03:47:20.950Z,999.86
2018-08-17T03:48:01.473Z,999.9
2018-08-17T03:48:41.994Z,999.92
2018-08-17T03:49:22.514Z,999.87
2018-08-17T03:50:03.037Z,999.92
2018-08-17T03:50:43.567Z,999.93
2018-08-17T03:51:24.077Z,999.93
2018-08-17T03:52:04.594Z,999.94
2018-08-17T03:52:45.109Z,999.93
2018-08-17T03:53:25.627Z,999.98
2018-08-17T03:54:06.144Z,999.98
2018-08-17T03:54:46.687Z,999.97
2018-08-17T03:55:27.189Z,1000
2018-08-17T03:56:07.702Z,1000.01
2018-08-17T03:56:48.224Z,1000.02
2018-08-17T03:57:28.735Z,1000.03
2018-08-17T03:58:09.244Z,1000.03
2018-08-17T03:58:49.750Z,1000.04
2018-08-17T03:59:30.272Z,1000.05
2018-08-17T04:00:10.807Z,999.98
2018-08-17T04:00:51.318Z,1000.05
2018-08-17T04:01:31.843Z,1000.03
2018-08-17T04:02:12.366Z,1000.03
2018-08-17T04:02:52.899Z,1000.05
2018-08-17T04:03:33.412Z,1000.05
2018-08-17T04:04:13.917Z,1000.06
2018-08-17T04:04:54.443Z,1000.08
2018-08-17T04:05:34.966Z,1000.06
2018-08-17T04:06:15.484Z,1000.08
2018-08-17T04:06:56.021Z,1000.07
2018-08-17T04:07:36.561Z,1000.06
2018-08-17T04:08:17.074Z,1000.09
2018-08-17T04:08:57.588Z,1000.06
2018-08-17T04:09:38.116Z,1000.1
2018-08-17T04:10:18.646Z,1000.07
2018-08-17T04:10:59.158Z,1000.09
2018-08-17T04:11:39.670Z,1000.15
2018-08-17T04:12:20.185Z,1000.1
2018-08-17T04:13:00.719Z,1000.11
2018-08-17T04:13:41.230Z,1000.13
2018-08-17T04:14:21.750Z,1000.14
2018-08-17T04:15:02.267Z,1000.1
2018-08-17T04:15:42.788Z,1000.15
2018-08-17T04:16:23.316Z,1000.17
2018-08-17T04:17:03.842Z,1000.15
2018-08-17T04:17:44.364Z,1000.2
2018-08-17T04:18:24.885Z,1000.22
2018-08-17T04:19:05.413Z,1000.19
2018-08-17T04:19:45.933Z,1000.25
2018-08-17T04:20:26.441Z,1000.22
2018-08-17T04:21:06.966Z,1000.21
2018-08-17T04:21:47.497Z,1000.22
2018-08-17T04:22:27.996Z,1000.26
2018-08-17T04:23:08.514Z,1000.25
2018-08-17T04:23:49.066Z,1000.22
2018-08-17T04:24:29.568Z,1000.26
2018-08-17T04:25:10.075Z,1000.24
2018-08-17T04:25:50.590Z,1000.24
2018-08-17T04:26:31.100Z,1000.23
2018-08-17T04:27:11.687Z,1000.24
2018-08-17T04:27:52.215Z,1000.26
2018-08-17T04:28:32.731Z,1000.29
2018-08-17T04:29:13.251Z,1000.3
2018-08-17T04:29:53.775Z,1000.23
2018-08-17T04:30:34.301Z,1000.32
2018-08-17T04:31:14.818Z,1000.31
2018-08-17T04:31:55.327Z,1000.3
2018-08-17T04:32:35.849Z,1000.35
2018-08-17T04:33:16.364Z,1000.34
2018-08-17T04:33:56.878Z,1000.35
2018-08-17T04:34:37.436Z,1000.37
2018-08-17T04:35:17.981Z,1000.39
2018-08-17T04:35:58.470Z,1000.36
2018-08-17T04:36:38.980Z,1000.36
2018-08-17T04:37:19.508Z,1000.37
2018-08-17T04:38:00.008Z,1000.4
2018-08-17T04:38:40.524Z,1000.41
2018-08-17T04:39:21.042Z,1000.4
2018-08-17T04:40:01.569Z,1000.39
2018-08-17T04:40:42.084Z,1000.39
2018-08-17T04:41:22.616Z,1000.37
2018-08-17T04:42:03.120Z,1000.45
2018-08-17T04:42:43.734Z,1000.43
2018-08-17T04:43:24.199Z,1000.46
2018-08-17T04:44:04.698Z,1000.46
2018-08-17T04:44:45.228Z,1000.46
2018-08-17T04:45:25.752Z,1000.45
2018-08-17T04:46:06.270Z,1000.47
2018-08-17T04:46:46.790Z,1000.48
2018-08-17T04:47:27.283Z,1000.5
2018-08-17T04:48:07.779Z,1000.51
2018-08-17T04:48:48.304Z,1000.46
2018-08-17T04:49:28.813Z,1000.5
2018-08-17T04:50:09.330Z,1000.47
2018-08-17T04:50:49.847Z,1000.58
2018-08-17T04:51:30.379Z,1000.52
2018-08-17T04:52:10.894Z,1000.51
2018-08-17T04:52:51.407Z,1000.53
2018-08-17T04:53:31.956Z,1000.52
2018-08-17T04:54:12.445Z,1000.54
2018-08-17T04:54:52.961Z,1000.57
2018-08-17T04:55:33.469Z,1000.58
2018-08-17T04:56:13.985Z,1000.6
2018-08-17T04:56:54.505Z,1000.63
2018-08-17T04:57:35.058Z,1000.62
2018-08-17T04:58:15.581Z,1000.62
2018-08-17T04:58:56.405Z,1000.62
2018-08-17T04:59:36.890Z,1000.67
2018-08-17T05:00:17.362Z,1000.63
2018-08-17T05:00:57.882Z,1000.67
2018-08-17T05:01:38.423Z,1000.64
2018-08-17T05:02:18.935Z,1000.65
2018-08-17T05:02:59.426Z,1000.6
2018-08-17T05:03:39.957Z,1000.67
2018-08-17T05:04:20.470Z,1000.66
2018-08-17T05:05:00.969Z,1000.69
2018-08-17T05:05:41.499Z,1000.65
2018-08-17T05:06:22.001Z,1000.67
2018-08-17T05:07:02.554Z,1000.66
2018-08-17T05:07:43.401Z,1000.67
2018-08-17T05:08:23.904Z,1000.71
2018-08-17T05:09:04.535Z,1000.69
2018-08-17T05:09:45.032Z,1000.71
2018-08-17T05:10:25.662Z,1000.71
2018-08-17T05:11:06.138Z,1000.72
2018-08-17T05:11:46.656Z,1000.7
2018-08-17T05:12:27.135Z,1000.7
2018-08-17T05:13:07.608Z,1000.72
2018-08-17T05:13:48.160Z,1000.71
2018-08-17T05:14:28.636Z,1000.7
2018-08-17T05:15:09.106Z,1000.71
2018-08-17T05:15:49.603Z,1000.73
2018-08-17T05:16:30.091Z,1000.74
2018-08-17T05:17:10.592Z,1000.78
2018-08-17T05:17:51.093Z,1000.79
2018-08-17T05:18:31.612Z,1000.78
2018-08-17T05:19:12.105Z,1000.76
2018-08-17T05:19:52.624Z,1000.81
2018-08-17T05:20:33.160Z,1000.84
2018-08-17T05:21:13.670Z,1000.81
2018-08-17T05:21:54.195Z,1000.8
2018-08-17T05:22:34.675Z,1000.81
2018-08-17T05:23:15.202Z,1000.86
2018-08-17T05:23:55.657Z,1000.86
2018-08-17T05:24:36.180Z,1000.89
2018-08-17T05:25:16.670Z,1000.9
2018-08-17T05:25:57.179Z,1000.87
2018-08-17T05:26:37.860Z,1000.86
2018-08-17T05:27:18.233Z,1000.86
2018-08-17T05:27:58.701Z,1000.9
2018-08-17T05:28:39.225Z,1000.92
2018-08-17T05:30:52.476Z,1000.91
2018-08-17T05:31:33.055Z,1000.91
2018-08-17T05:32:14.175Z,1000.92
2018-08-17T05:32:54.672Z,1000.91
2018-08-17T05:33:35.168Z,1000.93
2018-08-17T05:34:15.691Z,1000.91
2018-08-17T05:34:56.189Z,1000.89
2018-08-17T05:35:36.704Z,1000.91
2018-08-17T05:36:17.246Z,1000.89
2018-08-17T05:36:57.768Z,1000.9
2018-08-17T05:37:38.304Z,1000.87
2018-08-17T05:38:18.785Z,1000.88
2018-08-17T05:38:59.252Z,1000.91
2018-08-17T05:39:39.785Z,1000.88
2018-08-17T05:40:20.328Z,1000.87
2018-08-17T05:41:00.986Z,1000.86
2018-08-17T05:41:41.513Z,1000.84
2018-08-17T05:42:22.029Z,1000.91
2018-08-17T05:43:02.504Z,1000.91
2018-08-17T05:43:43.010Z,1000.96
2018-08-17T05:44:23.526Z,1000.93
2018-08-17T05:45:04.123Z,1000.94
2018-08-17T05:45:44.500Z,1000.98
2018-08-17T05:46:25.323Z,1001.06
2018-08-17T05:47:06.042Z,1001.04
2018-08-17T05:47:46.571Z,1001.02
2018-08-17T05:48:27.081Z,1001.02
2018-08-17T05:49:07.596Z,1001.02
2018-08-17T05:49:48.131Z,1001.02
2018-08-17T05:50:28.582Z,1001.03
2018-08-17T05:51:09.080Z,1001.07
2018-08-17T05:51:50.221Z,1001.03
2018-08-17T05:52:30.667Z,1001.06
2018-08-17T05:53:11.183Z,1001.04
2018-08-17T05:53:51.769Z,1001.04
2018-08-17T05:54:32.283Z,1001.03
2018-08-17T05:55:12.824Z,1001.07
2018-08-17T05:55:53.316Z,1001.07
2018-08-17T05:56:33.867Z,1001.06
2018-08-17T05:57:14.338Z,1001.12
2018-08-17T05:57:54.842Z,1001.09
2018-08-17T05:58:35.351Z,1001.08
2018-08-17T05:59:15.885Z,1001.08
2018-08-17T05:59:56.373Z,1001.06
2018-08-17T06:00:36.917Z,1001.08
2018-08-17T06:01:17.376Z,1001.1
2018-08-17T06:01:57.884Z,1001.14
2018-08-17T06:02:38.364Z,1001.13
2018-08-17T06:03:18.868Z,1001.16
2018-08-17T06:03:59.373Z,1001.14
2018-08-17T06:04:39.892Z,1001.18
2018-08-17T06:05:20.362Z,1001.19
2018-08-17T06:06:00.865Z,1001.16
2018-08-17T06:06:41.434Z,1001.17
2018-08-17T06:07:21.891Z,1001.17
2018-08-17T06:08:02.406Z,1001.17
2018-08-17T06:08:42.929Z,1001.16
2018-08-17T06:09:23.466Z,1001.17
2018-08-17T06:10:03.987Z,1001.14
2018-08-17T06:10:44.512Z,1001.18
2018-08-17T06:11:25.204Z,1001.15
2018-08-17T06:12:05.557Z,1001.2
2018-08-17T06:12:46.063Z,1001.15
2018-08-17T06:13:26.602Z,1001.22
2018-08-17T06:14:07.082Z,1001.2
2018-08-17T06:14:47.608Z,1001.21
2018-08-17T06:15:28.135Z,1001.21
2018-08-17T06:16:08.613Z,1001.23
2018-08-17T06:16:49.177Z,1001.21
2018-08-17T06:17:29.706Z,1001.22
2018-08-17T06:18:10.192Z,1001.21
2018-08-17T06:18:50.701Z,1001.23
2018-08-17T06:19:31.168Z,1001.25
2018-08-17T06:20:11.672Z,1001.24
2018-08-17T06:20:52.155Z,1001.23
2018-08-17T06:21:32.719Z,1001.25
2018-08-17T06:22:13.209Z,1001.27
2018-08-17T06:22:53.701Z,1001.26
2018-08-17T06:23:34.179Z,1001.27
2018-08-17T06:24:14.697Z,1001.24
2018-08-17T06:24:55.227Z,1001.28
2018-08-17T06:25:35.705Z,1001.26
2018-08-17T06:26:16.171Z,1001.33
2018-08-17T06:26:56.669Z,1001.25
2018-08-17T06:27:37.173Z,1001.31
2018-08-17T06:28:17.667Z,1001.26
2018-08-17T06:28:58.140Z,1001.28
2018-08-17T06:29:38.652Z,1001.28
2018-08-17T06:30:19.162Z,1001.32
2018-08-17T06:30:59.667Z,1001.31
2018-08-17T06:31:40.153Z,1001.29
2018-08-17T06:32:20.614Z,1001.3
2018-08-17T06:33:01.127Z,1001.34
2018-08-17T06:33:41.632Z,1001.36
2018-08-17T06:34:22.138Z,1001.38
2018-08-17T06:35:02.633Z,1001.3
2018-08-17T06:35:43.107Z,1001.38
2018-08-17T06:36:23.584Z,1001.37
2018-08-17T06:37:04.177Z,1001.36
2018-08-17T06:37:44.568Z,1001.35
2018-08-17T06:38:25.133Z,1001.33
2018-08-17T06:39:05.700Z,1001.33
2018-08-17T06:39:46.175Z,1001.38
2018-08-17T06:40:26.681Z,1001.4
2018-08-17T06:41:07.181Z,1001.4
2018-08-17T06:41:47.672Z,1001.4
2018-08-17T06:42:28.179Z,1001.44
2018-08-17T06:43:08.659Z,1001.43
2018-08-17T06:43:49.127Z,1001.46
2018-08-17T06:44:29.621Z,1001.48
2018-08-17T06:45:10.123Z,1001.43
2018-08-17T06:45:50.823Z,1001.49
2018-08-17T06:46:31.371Z,1001.46
2018-08-17T06:47:11.833Z,1001.52
2018-08-17T06:47:52.333Z,1001.51
2018-08-17T06:48:32.910Z,1001.51
2018-08-17T06:49:13.551Z,1001.48
2018-08-17T06:49:54.079Z,1001.48
2018-08-17T06:50:34.682Z,1001.51
2018-08-17T06:51:15.169Z,1001.45
2018-08-17T06:51:55.599Z,1001.5
2018-08-17T06:52:36.053Z,1001.49
2018-08-17T06:53:16.523Z,1001.46
2018-08-17T06:53:57.126Z,1001.45
2018-08-17T06:54:37.592Z,1001.44
2018-08-17T06:55:18.092Z,1001.41
2018-08-17T06:55:58.577Z,1001.43
2018-08-17T06:56:39.059Z,1001.46
2018-08-17T06:57:19.663Z,1001.42
2018-08-17T06:58:00.069Z,1001.47
2018-08-17T06:58:40.530Z,1001.46
2018-08-17T06:59:21.030Z,1001.47
2018-08-17T07:00:01.583Z,1001.48
2018-08-17T07:00:42.070Z,1001.45
2018-08-17T07:01:22.656Z,1001.5
2018-08-17T07:02:03.152Z,1001.5
2018-08-17T07:02:43.686Z,1001.51
2018-08-17T07:03:24.167Z,1001.48
2018-08-17T07:04:04.621Z,1001.47
2018-08-17T07:04:45.117Z,1001.48
2018-08-17T07:05:25.589Z,1001.55
2018-08-17T07:06:06.088Z,1001.53
2018-08-17T07:06:46.612Z,1001.54
2018-08-17T07:07:27.231Z,1001.55
2018-08-17T07:08:07.629Z,1001.57
2018-08-17T07:08:48.234Z,1001.53
2018-08-17T07:09:28.747Z,1001.56
2018-08-17T07:10:09.189Z,1001.52
2018-08-17T07:10:49.689Z,1001.53
2018-08-17T07:11:30.346Z,1001.54
2018-08-17T07:12:10.814Z,1001.52
2018-08-17T07:12:51.380Z,1001.54
2018-08-17T07:13:31.896Z,1001.55
2018-08-17T07:14:12.388Z,1001.54
2018-08-17T07:14:52.889Z,1001.49
2018-08-17T07:15:33.386Z,1001.55
2018-08-17T07:16:13.873Z,1001.47
2018-08-17T07:16:54.385Z,1001.51
2018-08-17T07:17:34.885Z,1001.53
2018-08-17T07:18:15.432Z,1001.51
2018-08-17T07:18:55.922Z,1001.56
2018-08-17T07:19:36.469Z,1001.5
2018-08-17T07:20:16.957Z,1001.53
2018-08-17T07:20:57.491Z,1001.59
2018-08-17T07:21:38.055Z,1001.56
2018-08-17T07:22:18.505Z,1001.58
2018-08-17T07:22:58.981Z,1001.57
2018-08-17T07:23:39.475Z,1001.54
2018-08-17T07:24:19.992Z,1001.57
2018-08-17T07:25:00.477Z,1001.57
2018-08-17T07:25:40.967Z,1001.59
2018-08-17T07:26:21.482Z,1001.63
2018-08-17T07:27:02.020Z,1001.56
2018-08-17T07:27:42.514Z,1001.6
2018-08-17T07:28:23.015Z,1001.63
2018-08-17T07:29:03.546Z,1001.64
2018-08-17T07:29:44.014Z,1001.65
2018-08-17T07:30:24.551Z,1001.67
2018-08-17T07:31:05.036Z,1001.61
2018-08-17T07:31:45.570Z,1001.62
2018-08-17T07:32:26.064Z,1001.68
2018-08-17T07:33:06.564Z,1001.61
2018-08-17T07:33:47.054Z,1001.67
2018-08-17T07:34:27.582Z,1001.66
2018-08-17T07:35:08.027Z,1001.67
2018-08-17T07:35:48.608Z,1001.68
2018-08-17T07:36:29.054Z,1001.7
2018-08-17T07:37:09.492Z,1001.7
2018-08-17T07:37:50.017Z,1001.69
2018-08-17T07:38:30.502Z,1001.7
2018-08-17T07:39:11.029Z,1001.68
2018-08-17T07:39:51.550Z,1001.68
2018-08-17T07:40:32.041Z,1001.68
2018-08-17T07:41:12.532Z,1001.73
2018-08-17T07:41:52.996Z,1001.66
2018-08-17T07:42:33.497Z,1001.69
2018-08-17T07:43:13.981Z,1001.76
2018-08-17T07:43:54.491Z,1001.69
2018-08-17T07:44:34.981Z,1001.71
2018-08-17T07:45:15.477Z,1001.75
2018-08-17T07:45:55.960Z,1001.7
2018-08-17T07:46:36.487Z,1001.75
2018-08-17T07:47:16.920Z,1001.73
2018-08-17T07:47:57.485Z,1001.73
2018-08-17T07:48:37.894Z,1001.75
2018-08-17T07:49:18.467Z,1001.76
2018-08-17T07:49:58.961Z,1001.78
2018-08-17T07:50:39.627Z,1001.74
2018-08-17T07:51:20.186Z,1001.78
2018-08-17T07:52:00.948Z,1001.76
2018-08-17T07:52:41.473Z,1001.76
2018-08-17T07:53:21.992Z,1001.75
2018-08-17T07:54:02.542Z,1001.79
2018-08-17T07:54:43.035Z,1001.8
2018-08-17T07:55:23.523Z,1001.83
2018-08-17T07:57:21.700Z,1001.8
2018-08-17T07:58:02.241Z,1001.82
2018-08-17T07:58:43.068Z,1001.81
2018-08-17T07:59:23.593Z,1001.84
2018-08-17T08:00:04.340Z,1001.84
2018-08-17T08:00:44.852Z,1001.87
2018-08-17T08:01:25.373Z,1001.92
2018-08-17T08:02:05.929Z,1001.84
2018-08-17T08:02:46.477Z,1001.87
2018-08-17T08:03:27.024Z,1001.92
2018-08-17T08:04:07.518Z,1001.88
2018-08-17T08:04:47.972Z,1001.9
2018-08-17T08:05:28.475Z,1001.92
2018-08-17T08:06:09.019Z,1001.9
2018-08-17T08:06:49.616Z,1001.91
2018-08-17T08:07:30.121Z,1001.92
2018-08-17T08:08:10.607Z,1001.92
2018-08-17T08:08:51.093Z,1001.96
2018-08-17T08:09:31.591Z,1001.95
2018-08-17T08:10:12.117Z,1001.94
2018-08-17T08:10:52.742Z,1001.97
2018-08-17T08:11:33.268Z,1001.94
2018-08-17T08:12:13.860Z,1002.01
2018-08-17T08:12:54.402Z,1001.99
2018-08-17T08:13:34.920Z,1001.99
2018-08-17T08:14:15.508Z,1002.02
2018-08-17T08:14:56.017Z,1001.98
2018-08-17T08:15:36.526Z,1002.02
2018-08-17T08:16:16.987Z,1002.04
2018-08-17T08:16:57.524Z,1002.07
2018-08-17T08:17:38.021Z,1002.07
2018-08-17T08:18:18.541Z,1002.14
2018-08-17T08:18:59.109Z,1002.1
2018-08-17T08:19:40.425Z,1002.12
2018-08-17T08:20:21.073Z,1002.16
2018-08-17T08:21:01.520Z,1002.11
2018-08-17T08:21:42.043Z,1002.11
2018-08-17T08:22:22.587Z,1002.16
2018-08-17T08:23:03.070Z,1002.16
2018-08-17T08:23:43.546Z,1002.14
2018-08-17T08:24:24.075Z,1002.14
2018-08-17T08:25:04.543Z,1002.14